sensor_id;sensor_type;location;lat;lon;timestamp;P1;durP1;ratioP1;P2;durP2;ratioP2
75073;SDS011;63652;51.526;5.080;2023-06-22T00:00:54;3.85;;;2.38;;
75073;SDS011;63652;51.526;5.080;2023-06-22T00:03:22;3.10;;;1.70;;
75073;SDS011;63652;51.526;5.080;2023-06-22T00:05:49;4.97;;;1.83;;
75073;SDS011;63652;51.526;5.080;2023-06-22T00:08:15;3.00;;;1.80;;
75073;SDS011;63652;51.526;5.080;2023-06-22T00:10:41;4.38;;;1.73;;
75073;SDS011;63652;51.526;5.080;2023-06-22T00:13:07;5.57;;;2.78;;
75073;SDS011;63652;51.526;5.080;2023-06-22T00:15:33;3.63;;;1.90;;
75073;SDS011;63652;51.526;5.080;2023-06-22T00:17:59;4.18;;;1.92;;
75073;SDS011;63652;51.526;5.080;2023-06-22T00:20:25;3.05;;;1.75;;
75073;SDS011;63652;51.526;5.080;2023-06-22T00:22:53;3.42;;;1.98;;
75073;SDS011;63652;51.526;5.080;2023-06-22T00:25:19;3.22;;;1.50;;
75073;SDS011;63652;51.526;5.080;2023-06-22T00:27:44;3.22;;;1.60;;
75073;SDS011;63652;51.526;5.080;2023-06-22T00:30:10;3.88;;;2.10;;
75073;SDS011;63652;51.526;5.080;2023-06-22T00:32:35;3.85;;;1.95;;
75073;SDS011;63652;51.526;5.080;2023-06-22T00:35:01;4.60;;;2.03;;
75073;SDS011;63652;51.526;5.080;2023-06-22T00:37:26;3.25;;;1.75;;
75073;SDS011;63652;51.526;5.080;2023-06-22T00:43:16;4.43;;;2.42;;
75073;SDS011;63652;51.526;5.080;2023-06-22T00:45:41;4.00;;;2.05;;
75073;SDS011;63652;51.526;5.080;2023-06-22T00:48:07;3.03;;;1.83;;
75073;SDS011;63652;51.526;5.080;2023-06-22T00:50:33;3.65;;;2.20;;
75073;SDS011;63652;51.526;5.080;2023-06-22T00:52:59;3.38;;;2.00;;
75073;SDS011;63652;51.526;5.080;2023-06-22T00:55:33;5.75;;;2.00;;
75073;SDS011;63652;51.526;5.080;2023-06-22T00:58:02;3.63;;;1.65;;
75073;SDS011;63652;51.526;5.080;2023-06-22T01:00:32;4.13;;;1.90;;
75073;SDS011;63652;51.526;5.080;2023-06-22T01:02:58;3.58;;;1.73;;
75073;SDS011;63652;51.526;5.080;2023-06-22T01:05:24;4.88;;;2.35;;
75073;SDS011;63652;51.526;5.080;2023-06-22T01:10:25;6.28;;;2.50;;
75073;SDS011;63652;51.526;5.080;2023-06-22T01:12:56;3.92;;;2.03;;
75073;SDS011;63652;51.526;5.080;2023-06-22T01:15:31;3.17;;;1.85;;
75073;SDS011;63652;51.526;5.080;2023-06-22T01:17:59;5.05;;;2.40;;
75073;SDS011;63652;51.526;5.080;2023-06-22T01:20:25;5.72;;;2.58;;
75073;SDS011;63652;51.526;5.080;2023-06-22T01:25:37;4.80;;;1.90;;
75073;SDS011;63652;51.526;5.080;2023-06-22T01:30:42;5.35;;;2.17;;
75073;SDS011;63652;51.526;5.080;2023-06-22T01:33:10;3.65;;;2.10;;
75073;SDS011;63652;51.526;5.080;2023-06-22T01:35:37;3.95;;;1.90;;
75073;SDS011;63652;51.526;5.080;2023-06-22T01:38:02;5.20;;;2.10;;
75073;SDS011;63652;51.526;5.080;2023-06-22T01:40:28;4.00;;;2.03;;
75073;SDS011;63652;51.526;5.080;2023-06-22T01:42:55;4.07;;;1.98;;
75073;SDS011;63652;51.526;5.080;2023-06-22T01:45:20;4.43;;;2.15;;
75073;SDS011;63652;51.526;5.080;2023-06-22T01:47:46;5.90;;;2.55;;
75073;SDS011;63652;51.526;5.080;2023-06-22T01:50:12;6.53;;;2.67;;
75073;SDS011;63652;51.526;5.080;2023-06-22T01:52:37;6.82;;;2.47;;
75073;SDS011;63652;51.526;5.080;2023-06-22T01:55:03;5.75;;;2.30;;
75073;SDS011;63652;51.526;5.080;2023-06-22T01:57:29;4.72;;;2.30;;
75073;SDS011;63652;51.526;5.080;2023-06-22T02:00:03;5.00;;;2.53;;
75073;SDS011;63652;51.526;5.080;2023-06-22T02:02:33;6.07;;;3.10;;
75073;SDS011;63652;51.526;5.080;2023-06-22T02:05:07;4.65;;;3.10;;
75073;SDS011;63652;51.526;5.080;2023-06-22T02:07:38;6.03;;;2.58;;
75073;SDS011;63652;51.526;5.080;2023-06-22T02:10:07;4.00;;;2.50;;
75073;SDS011;63652;51.526;5.080;2023-06-22T02:12:33;8.80;;;4.07;;
75073;SDS011;63652;51.526;5.080;2023-06-22T02:14:59;5.28;;;3.33;;
75073;SDS011;63652;51.526;5.080;2023-06-22T02:17:26;8.48;;;4.13;;
75073;SDS011;63652;51.526;5.080;2023-06-22T02:19:51;7.57;;;3.85;;
75073;SDS011;63652;51.526;5.080;2023-06-22T02:22:17;7.85;;;4.10;;
75073;SDS011;63652;51.526;5.080;2023-06-22T02:24:42;7.65;;;2.83;;
75073;SDS011;63652;51.526;5.080;2023-06-22T02:27:08;7.03;;;3.33;;
75073;SDS011;63652;51.526;5.080;2023-06-22T02:29:33;8.15;;;3.95;;
75073;SDS011;63652;51.526;5.080;2023-06-22T02:31:59;7.63;;;4.03;;
75073;SDS011;63652;51.526;5.080;2023-06-22T02:34:24;6.82;;;3.75;;
75073;SDS011;63652;51.526;5.080;2023-06-22T02:36:50;8.63;;;4.88;;
75073;SDS011;63652;51.526;5.080;2023-06-22T02:39:23;7.68;;;4.22;;
75073;SDS011;63652;51.526;5.080;2023-06-22T02:41:53;8.13;;;4.47;;
75073;SDS011;63652;51.526;5.080;2023-06-22T02:44:19;9.57;;;4.25;;
75073;SDS011;63652;51.526;5.080;2023-06-22T02:46:45;7.82;;;4.07;;
75073;SDS011;63652;51.526;5.080;2023-06-22T02:49:11;8.75;;;4.60;;
75073;SDS011;63652;51.526;5.080;2023-06-22T02:51:47;7.38;;;4.20;;
75073;SDS011;63652;51.526;5.080;2023-06-22T02:54:13;14.32;;;4.85;;
75073;SDS011;63652;51.526;5.080;2023-06-22T02:56:38;7.90;;;4.80;;
75073;SDS011;63652;51.526;5.080;2023-06-22T02:59:05;9.23;;;4.82;;
75073;SDS011;63652;51.526;5.080;2023-06-22T03:01:31;8.00;;;4.82;;
75073;SDS011;63652;51.526;5.080;2023-06-22T03:04:02;12.45;;;5.70;;
75073;SDS011;63652;51.526;5.080;2023-06-22T03:06:28;10.20;;;5.18;;
75073;SDS011;63652;51.526;5.080;2023-06-22T03:08:58;17.48;;;8.45;;
75073;SDS011;63652;51.526;5.080;2023-06-22T03:11:25;17.70;;;9.18;;
75073;SDS011;63652;51.526;5.080;2023-06-22T03:13:51;16.83;;;9.25;;
75073;SDS011;63652;51.526;5.080;2023-06-22T03:16:17;16.75;;;8.68;;
75073;SDS011;63652;51.526;5.080;2023-06-22T03:18:43;14.55;;;9.25;;
75073;SDS011;63652;51.526;5.080;2023-06-22T03:21:09;16.88;;;8.43;;
75073;SDS011;63652;51.526;5.080;2023-06-22T03:23:34;15.77;;;9.40;;
75073;SDS011;63652;51.526;5.080;2023-06-22T03:26:00;15.77;;;9.02;;
75073;SDS011;63652;51.526;5.080;2023-06-22T03:28:26;19.58;;;9.52;;
75073;SDS011;63652;51.526;5.080;2023-06-22T03:30:51;14.73;;;8.77;;
75073;SDS011;63652;51.526;5.080;2023-06-22T03:33:17;19.38;;;8.10;;
75073;SDS011;63652;51.526;5.080;2023-06-22T03:35:42;18.73;;;9.43;;
75073;SDS011;63652;51.526;5.080;2023-06-22T03:38:08;15.00;;;8.68;;
75073;SDS011;63652;51.526;5.080;2023-06-22T03:40:33;17.05;;;9.32;;
75073;SDS011;63652;51.526;5.080;2023-06-22T03:42:58;15.45;;;9.02;;
75073;SDS011;63652;51.526;5.080;2023-06-22T03:45:24;16.73;;;9.95;;
75073;SDS011;63652;51.526;5.080;2023-06-22T03:47:49;15.27;;;8.73;;
75073;SDS011;63652;51.526;5.080;2023-06-22T03:50:14;16.92;;;8.65;;
75073;SDS011;63652;51.526;5.080;2023-06-22T03:52:40;14.45;;;9.05;;
75073;SDS011;63652;51.526;5.080;2023-06-22T03:55:06;14.32;;;8.18;;
75073;SDS011;63652;51.526;5.080;2023-06-22T03:57:32;15.27;;;9.18;;
75073;SDS011;63652;51.526;5.080;2023-06-22T03:59:58;15.35;;;8.85;;
75073;SDS011;63652;51.526;5.080;2023-06-22T04:02:24;16.48;;;8.43;;
75073;SDS011;63652;51.526;5.080;2023-06-22T04:04:49;15.48;;;9.48;;
75073;SDS011;63652;51.526;5.080;2023-06-22T04:07:15;17.90;;;8.93;;
75073;SDS011;63652;51.526;5.080;2023-06-22T04:09:40;15.23;;;8.50;;
75073;SDS011;63652;51.526;5.080;2023-06-22T04:12:06;15.38;;;7.95;;
75073;SDS011;63652;51.526;5.080;2023-06-22T04:14:31;16.25;;;8.63;;
75073;SDS011;63652;51.526;5.080;2023-06-22T04:16:57;13.23;;;7.60;;
75073;SDS011;63652;51.526;5.080;2023-06-22T04:19:23;14.90;;;7.97;;
75073;SDS011;63652;51.526;5.080;2023-06-22T04:21:48;19.02;;;8.82;;
75073;SDS011;63652;51.526;5.080;2023-06-22T04:24:14;12.35;;;8.10;;
75073;SDS011;63652;51.526;5.080;2023-06-22T04:26:39;16.05;;;9.45;;
75073;SDS011;63652;51.526;5.080;2023-06-22T04:29:06;14.98;;;8.30;;
75073;SDS011;63652;51.526;5.080;2023-06-22T04:31:33;14.75;;;8.40;;
75073;SDS011;63652;51.526;5.080;2023-06-22T04:34:05;13.55;;;8.07;;
75073;SDS011;63652;51.526;5.080;2023-06-22T04:36:33;12.00;;;7.55;;
75073;SDS011;63652;51.526;5.080;2023-06-22T04:41:34;16.23;;;8.15;;
75073;SDS011;63652;51.526;5.080;2023-06-22T04:44:12;12.63;;;7.15;;
75073;SDS011;63652;51.526;5.080;2023-06-22T04:46:38;15.35;;;8.13;;
75073;SDS011;63652;51.526;5.080;2023-06-22T04:49:05;16.77;;;8.65;;
75073;SDS011;63652;51.526;5.080;2023-06-22T04:51:40;13.00;;;8.10;;
75073;SDS011;63652;51.526;5.080;2023-06-22T04:54:06;14.95;;;9.18;;
75073;SDS011;63652;51.526;5.080;2023-06-22T04:56:32;12.85;;;7.78;;
75073;SDS011;63652;51.526;5.080;2023-06-22T04:58:58;12.85;;;7.75;;
75073;SDS011;63652;51.526;5.080;2023-06-22T05:01:23;15.55;;;8.48;;
75073;SDS011;63652;51.526;5.080;2023-06-22T05:03:50;14.32;;;7.72;;
75073;SDS011;63652;51.526;5.080;2023-06-22T05:06:16;13.15;;;6.88;;
75073;SDS011;63652;51.526;5.080;2023-06-22T05:08:42;13.93;;;8.30;;
75073;SDS011;63652;51.526;5.080;2023-06-22T05:11:08;14.35;;;7.43;;
75073;SDS011;63652;51.526;5.080;2023-06-22T05:13:34;15.88;;;7.68;;
75073;SDS011;63652;51.526;5.080;2023-06-22T05:15:59;12.90;;;8.00;;
75073;SDS011;63652;51.526;5.080;2023-06-22T05:18:28;14.27;;;7.15;;
75073;SDS011;63652;51.526;5.080;2023-06-22T05:20:55;13.23;;;7.15;;
75073;SDS011;63652;51.526;5.080;2023-06-22T05:23:20;12.00;;;6.75;;
75073;SDS011;63652;51.526;5.080;2023-06-22T05:25:46;14.32;;;6.88;;
75073;SDS011;63652;51.526;5.080;2023-06-22T05:28:11;14.40;;;7.03;;
75073;SDS011;63652;51.526;5.080;2023-06-22T05:30:37;13.00;;;6.53;;
75073;SDS011;63652;51.526;5.080;2023-06-22T05:33:03;13.18;;;7.05;;
75073;SDS011;63652;51.526;5.080;2023-06-22T05:35:28;12.27;;;7.20;;
75073;SDS011;63652;51.526;5.080;2023-06-22T05:37:54;11.93;;;7.93;;
75073;SDS011;63652;51.526;5.080;2023-06-22T05:40:20;12.10;;;6.78;;
75073;SDS011;63652;51.526;5.080;2023-06-22T05:42:46;12.77;;;6.78;;
75073;SDS011;63652;51.526;5.080;2023-06-22T05:45:11;9.50;;;6.05;;
75073;SDS011;63652;51.526;5.080;2023-06-22T05:47:36;10.90;;;6.43;;
75073;SDS011;63652;51.526;5.080;2023-06-22T05:50:02;10.98;;;6.63;;
75073;SDS011;63652;51.526;5.080;2023-06-22T05:52:31;11.90;;;6.85;;
75073;SDS011;63652;51.526;5.080;2023-06-22T05:54:57;9.82;;;6.28;;
75073;SDS011;63652;51.526;5.080;2023-06-22T05:57:22;11.02;;;7.07;;
75073;SDS011;63652;51.526;5.080;2023-06-22T05:59:47;12.60;;;6.40;;
75073;SDS011;63652;51.526;5.080;2023-06-22T06:02:13;10.18;;;7.22;;
75073;SDS011;63652;51.526;5.080;2023-06-22T06:04:39;12.68;;;6.55;;
75073;SDS011;63652;51.526;5.080;2023-06-22T06:07:04;11.02;;;6.72;;
75073;SDS011;63652;51.526;5.080;2023-06-22T06:09:30;13.43;;;6.80;;
75073;SDS011;63652;51.526;5.080;2023-06-22T06:11:55;12.95;;;6.70;;
75073;SDS011;63652;51.526;5.080;2023-06-22T06:14:21;12.73;;;7.30;;
75073;SDS011;63652;51.526;5.080;2023-06-22T06:16:48;16.70;;;8.32;;
75073;SDS011;63652;51.526;5.080;2023-06-22T06:19:16;13.55;;;8.02;;
75073;SDS011;63652;51.526;5.080;2023-06-22T06:21:41;16.10;;;8.10;;
75073;SDS011;63652;51.526;5.080;2023-06-22T06:24:07;12.85;;;7.05;;
75073;SDS011;63652;51.526;5.080;2023-06-22T06:26:32;13.32;;;6.95;;
75073;SDS011;63652;51.526;5.080;2023-06-22T06:28:59;12.38;;;8.00;;
75073;SDS011;63652;51.526;5.080;2023-06-22T06:31:25;14.68;;;7.88;;
75073;SDS011;63652;51.526;5.080;2023-06-22T06:33:53;12.45;;;7.85;;
75073;SDS011;63652;51.526;5.080;2023-06-22T06:36:19;13.27;;;7.60;;
75073;SDS011;63652;51.526;5.080;2023-06-22T06:38:45;12.90;;;8.15;;
75073;SDS011;63652;51.526;5.080;2023-06-22T06:41:12;13.63;;;8.13;;
75073;SDS011;63652;51.526;5.080;2023-06-22T06:43:38;12.30;;;7.65;;
75073;SDS011;63652;51.526;5.080;2023-06-22T06:46:03;12.43;;;7.85;;
75073;SDS011;63652;51.526;5.080;2023-06-22T06:48:29;14.50;;;7.53;;
75073;SDS011;63652;51.526;5.080;2023-06-22T06:50:55;14.90;;;8.82;;
75073;SDS011;63652;51.526;5.080;2023-06-22T06:53:20;12.90;;;7.22;;
75073;SDS011;63652;51.526;5.080;2023-06-22T06:55:45;12.30;;;8.02;;
75073;SDS011;63652;51.526;5.080;2023-06-22T06:58:11;14.00;;;8.27;;
75073;SDS011;63652;51.526;5.080;2023-06-22T07:00:38;13.77;;;7.88;;
75073;SDS011;63652;51.526;5.080;2023-06-22T07:03:04;18.55;;;9.02;;
75073;SDS011;63652;51.526;5.080;2023-06-22T07:05:29;14.88;;;9.10;;
75073;SDS011;63652;51.526;5.080;2023-06-22T07:07:54;15.80;;;9.23;;
75073;SDS011;63652;51.526;5.080;2023-06-22T07:10:20;12.52;;;8.52;;
75073;SDS011;63652;51.526;5.080;2023-06-22T07:12:45;16.10;;;9.48;;
75073;SDS011;63652;51.526;5.080;2023-06-22T07:15:11;15.07;;;9.57;;
75073;SDS011;63652;51.526;5.080;2023-06-22T07:17:38;15.25;;;9.73;;
75073;SDS011;63652;51.526;5.080;2023-06-22T07:20:06;12.48;;;8.10;;
75073;SDS011;63652;51.526;5.080;2023-06-22T07:22:41;13.82;;;8.10;;
75073;SDS011;63652;51.526;5.080;2023-06-22T07:25:07;15.35;;;9.05;;
75073;SDS011;63652;51.526;5.080;2023-06-22T07:27:39;16.23;;;8.45;;
75073;SDS011;63652;51.526;5.080;2023-06-22T07:30:10;13.43;;;7.78;;
75073;SDS011;63652;51.526;5.080;2023-06-22T07:32:36;12.93;;;8.55;;
75073;SDS011;63652;51.526;5.080;2023-06-22T07:35:02;14.57;;;8.85;;
75073;SDS011;63652;51.526;5.080;2023-06-22T07:37:29;14.38;;;8.43;;
75073;SDS011;63652;51.526;5.080;2023-06-22T07:39:55;15.32;;;8.45;;
75073;SDS011;63652;51.526;5.080;2023-06-22T07:42:24;14.95;;;8.82;;
75073;SDS011;63652;51.526;5.080;2023-06-22T07:44:50;13.70;;;8.15;;
75073;SDS011;63652;51.526;5.080;2023-06-22T07:47:16;13.32;;;7.63;;
75073;SDS011;63652;51.526;5.080;2023-06-22T07:49:43;16.13;;;9.30;;
75073;SDS011;63652;51.526;5.080;2023-06-22T07:52:08;12.88;;;8.40;;
75073;SDS011;63652;51.526;5.080;2023-06-22T07:54:34;16.92;;;10.32;;
75073;SDS011;63652;51.526;5.080;2023-06-22T07:56:59;12.52;;;7.95;;
75073;SDS011;63652;51.526;5.080;2023-06-22T07:59:25;13.80;;;9.05;;
75073;SDS011;63652;51.526;5.080;2023-06-22T08:01:50;14.02;;;9.00;;
75073;SDS011;63652;51.526;5.080;2023-06-22T08:04:16;12.80;;;8.77;;
75073;SDS011;63652;51.526;5.080;2023-06-22T08:06:41;19.30;;;9.07;;
75073;SDS011;63652;51.526;5.080;2023-06-22T08:09:07;17.58;;;9.15;;
75073;SDS011;63652;51.526;5.080;2023-06-22T08:11:32;15.10;;;9.43;;
75073;SDS011;63652;51.526;5.080;2023-06-22T08:13:57;15.35;;;8.90;;
75073;SDS011;63652;51.526;5.080;2023-06-22T08:16:23;15.32;;;9.55;;
75073;SDS011;63652;51.526;5.080;2023-06-22T08:18:49;14.63;;;9.48;;
75073;SDS011;63652;51.526;5.080;2023-06-22T08:21:14;14.80;;;9.85;;
75073;SDS011;63652;51.526;5.080;2023-06-22T08:23:42;15.82;;;9.77;;
75073;SDS011;63652;51.526;5.080;2023-06-22T08:26:07;15.85;;;9.73;;
75073;SDS011;63652;51.526;5.080;2023-06-22T08:28:32;18.13;;;9.57;;
75073;SDS011;63652;51.526;5.080;2023-06-22T08:30:59;14.20;;;8.98;;
75073;SDS011;63652;51.526;5.080;2023-06-22T08:33:25;17.88;;;10.85;;
75073;SDS011;63652;51.526;5.080;2023-06-22T08:35:53;19.48;;;10.15;;
75073;SDS011;63652;51.526;5.080;2023-06-22T08:38:22;14.50;;;9.48;;
75073;SDS011;63652;51.526;5.080;2023-06-22T08:40:48;15.43;;;9.98;;
75073;SDS011;63652;51.526;5.080;2023-06-22T08:43:13;14.85;;;9.65;;
75073;SDS011;63652;51.526;5.080;2023-06-22T08:45:39;13.85;;;9.35;;
75073;SDS011;63652;51.526;5.080;2023-06-22T08:48:05;14.82;;;9.35;;
75073;SDS011;63652;51.526;5.080;2023-06-22T08:50:30;16.17;;;10.32;;
75073;SDS011;63652;51.526;5.080;2023-06-22T08:52:55;16.75;;;9.90;;
75073;SDS011;63652;51.526;5.080;2023-06-22T08:55:21;13.35;;;8.88;;
75073;SDS011;63652;51.526;5.080;2023-06-22T08:57:46;16.95;;;9.68;;
75073;SDS011;63652;51.526;5.080;2023-06-22T09:00:12;15.50;;;9.27;;
75073;SDS011;63652;51.526;5.080;2023-06-22T09:02:41;14.50;;;10.05;;
75073;SDS011;63652;51.526;5.080;2023-06-22T09:05:07;18.00;;;9.65;;
75073;SDS011;63652;51.526;5.080;2023-06-22T09:07:33;12.27;;;8.30;;
75073;SDS011;63652;51.526;5.080;2023-06-22T09:09:59;13.82;;;9.05;;
75073;SDS011;63652;51.526;5.080;2023-06-22T09:12:25;17.48;;;9.55;;
75073;SDS011;63652;51.526;5.080;2023-06-22T09:14:52;16.10;;;8.98;;
75073;SDS011;63652;51.526;5.080;2023-06-22T09:17:18;14.32;;;9.00;;
75073;SDS011;63652;51.526;5.080;2023-06-22T09:19:43;14.40;;;8.88;;
75073;SDS011;63652;51.526;5.080;2023-06-22T09:22:08;13.15;;;8.60;;
75073;SDS011;63652;51.526;5.080;2023-06-22T09:24:34;15.15;;;9.30;;
75073;SDS011;63652;51.526;5.080;2023-06-22T09:26:59;15.35;;;9.68;;
75073;SDS011;63652;51.526;5.080;2023-06-22T09:29:25;15.02;;;9.05;;
75073;SDS011;63652;51.526;5.080;2023-06-22T09:31:50;14.15;;;9.50;;
75073;SDS011;63652;51.526;5.080;2023-06-22T09:34:18;15.55;;;9.77;;
75073;SDS011;63652;51.526;5.080;2023-06-22T09:36:46;16.02;;;9.77;;
75073;SDS011;63652;51.526;5.080;2023-06-22T09:39:12;18.38;;;11.07;;
75073;SDS011;63652;51.526;5.080;2023-06-22T09:41:38;17.23;;;10.68;;
75073;SDS011;63652;51.526;5.080;2023-06-22T09:44:06;19.20;;;9.88;;
75073;SDS011;63652;51.526;5.080;2023-06-22T09:46:35;17.05;;;10.35;;
75073;SDS011;63652;51.526;5.080;2023-06-22T09:49:04;16.92;;;9.65;;
75073;SDS011;63652;51.526;5.080;2023-06-22T09:51:30;17.38;;;10.55;;
75073;SDS011;63652;51.526;5.080;2023-06-22T09:53:55;17.02;;;10.48;;
75073;SDS011;63652;51.526;5.080;2023-06-22T09:56:21;17.88;;;10.52;;
75073;SDS011;63652;51.526;5.080;2023-06-22T09:58:47;13.57;;;10.05;;
75073;SDS011;63652;51.526;5.080;2023-06-22T10:01:15;16.42;;;9.68;;
75073;SDS011;63652;51.526;5.080;2023-06-22T10:03:41;17.40;;;10.38;;
75073;SDS011;63652;51.526;5.080;2023-06-22T10:06:07;14.98;;;9.85;;
75073;SDS011;63652;51.526;5.080;2023-06-22T10:08:36;16.70;;;11.15;;
75073;SDS011;63652;51.526;5.080;2023-06-22T10:11:01;16.13;;;9.70;;
75073;SDS011;63652;51.526;5.080;2023-06-22T10:13:28;15.07;;;8.82;;
75073;SDS011;63652;51.526;5.080;2023-06-22T10:15:53;14.45;;;8.63;;
75073;SDS011;63652;51.526;5.080;2023-06-22T10:18:22;12.60;;;8.05;;
75073;SDS011;63652;51.526;5.080;2023-06-22T10:20:49;16.95;;;9.20;;
75073;SDS011;63652;51.526;5.080;2023-06-22T10:23:16;15.45;;;9.05;;
75073;SDS011;63652;51.526;5.080;2023-06-22T10:25:42;14.73;;;9.38;;
75073;SDS011;63652;51.526;5.080;2023-06-22T10:28:07;16.35;;;9.60;;
75073;SDS011;63652;51.526;5.080;2023-06-22T10:30:33;16.08;;;9.77;;
75073;SDS011;63652;51.526;5.080;2023-06-22T10:32:58;13.63;;;8.77;;
75073;SDS011;63652;51.526;5.080;2023-06-22T10:35:23;15.82;;;9.93;;
75073;SDS011;63652;51.526;5.080;2023-06-22T10:37:49;17.05;;;10.95;;
75073;SDS011;63652;51.526;5.080;2023-06-22T10:40:16;17.90;;;10.38;;
75073;SDS011;63652;51.526;5.080;2023-06-22T10:42:42;15.05;;;10.07;;
75073;SDS011;63652;51.526;5.080;2023-06-22T10:45:07;16.08;;;11.00;;
75073;SDS011;63652;51.526;5.080;2023-06-22T10:47:34;14.85;;;10.18;;
75073;SDS011;63652;51.526;5.080;2023-06-22T10:49:59;14.15;;;9.93;;
75073;SDS011;63652;51.526;5.080;2023-06-22T10:52:25;15.07;;;9.85;;
75073;SDS011;63652;51.526;5.080;2023-06-22T10:54:51;16.10;;;10.45;;
75073;SDS011;63652;51.526;5.080;2023-06-22T10:57:17;15.23;;;8.95;;
75073;SDS011;63652;51.526;5.080;2023-06-22T10:59:43;16.95;;;11.57;;
75073;SDS011;63652;51.526;5.080;2023-06-22T11:02:08;17.73;;;11.10;;
75073;SDS011;63652;51.526;5.080;2023-06-22T11:04:33;18.75;;;12.32;;
75073;SDS011;63652;51.526;5.080;2023-06-22T11:06:59;21.35;;;13.00;;
75073;SDS011;63652;51.526;5.080;2023-06-22T11:09:24;17.85;;;11.32;;
75073;SDS011;63652;51.526;5.080;2023-06-22T11:11:50;18.70;;;12.25;;
75073;SDS011;63652;51.526;5.080;2023-06-22T11:14:18;19.50;;;12.63;;
75073;SDS011;63652;51.526;5.080;2023-06-22T11:16:44;19.38;;;12.45;;
75073;SDS011;63652;51.526;5.080;2023-06-22T11:19:11;19.88;;;12.35;;
75073;SDS011;63652;51.526;5.080;2023-06-22T11:21:36;22.63;;;12.88;;
75073;SDS011;63652;51.526;5.080;2023-06-22T11:24:02;19.02;;;11.80;;
75073;SDS011;63652;51.526;5.080;2023-06-22T11:26:27;22.45;;;14.32;;
75073;SDS011;63652;51.526;5.080;2023-06-22T11:28:53;25.52;;;14.77;;
75073;SDS011;63652;51.526;5.080;2023-06-22T11:31:18;23.80;;;15.43;;
75073;SDS011;63652;51.526;5.080;2023-06-22T11:33:44;22.58;;;14.30;;
75073;SDS011;63652;51.526;5.080;2023-06-22T11:36:11;21.02;;;14.57;;
75073;SDS011;63652;51.526;5.080;2023-06-22T11:38:37;22.23;;;14.73;;
75073;SDS011;63652;51.526;5.080;2023-06-22T11:41:04;22.33;;;14.52;;
75073;SDS011;63652;51.526;5.080;2023-06-22T11:43:30;26.15;;;16.00;;
75073;SDS011;63652;51.526;5.080;2023-06-22T11:45:56;28.17;;;15.10;;
75073;SDS011;63652;51.526;5.080;2023-06-22T11:48:23;21.83;;;13.88;;
75073;SDS011;63652;51.526;5.080;2023-06-22T11:50:49;21.77;;;14.55;;
75073;SDS011;63652;51.526;5.080;2023-06-22T11:53:15;20.88;;;13.80;;
75073;SDS011;63652;51.526;5.080;2023-06-22T11:55:42;23.38;;;15.38;;
75073;SDS011;63652;51.526;5.080;2023-06-22T11:58:08;21.73;;;14.40;;
75073;SDS011;63652;51.526;5.080;2023-06-22T12:00:33;22.10;;;13.95;;
75073;SDS011;63652;51.526;5.080;2023-06-22T12:02:59;22.60;;;14.48;;
75073;SDS011;63652;51.526;5.080;2023-06-22T12:05:24;24.17;;;13.50;;
75073;SDS011;63652;51.526;5.080;2023-06-22T12:07:50;20.20;;;13.55;;
75073;SDS011;63652;51.526;5.080;2023-06-22T12:10:17;26.25;;;15.35;;
75073;SDS011;63652;51.526;5.080;2023-06-22T12:12:43;24.05;;;14.98;;
75073;SDS011;63652;51.526;5.080;2023-06-22T12:15:09;26.58;;;15.27;;
75073;SDS011;63652;51.526;5.080;2023-06-22T12:17:34;35.00;;;15.75;;
75073;SDS011;63652;51.526;5.080;2023-06-22T12:20:00;28.25;;;15.07;;
75073;SDS011;63652;51.526;5.080;2023-06-22T12:22:26;23.90;;;15.07;;
75073;SDS011;63652;51.526;5.080;2023-06-22T12:24:52;23.23;;;15.05;;
75073;SDS011;63652;51.526;5.080;2023-06-22T12:27:17;24.50;;;15.05;;
75073;SDS011;63652;51.526;5.080;2023-06-22T12:29:45;24.20;;;14.95;;
75073;SDS011;63652;51.526;5.080;2023-06-22T12:32:11;26.40;;;14.82;;
75073;SDS011;63652;51.526;5.080;2023-06-22T12:34:38;23.23;;;14.35;;
75073;SDS011;63652;51.526;5.080;2023-06-22T12:37:04;20.92;;;11.85;;
75073;SDS011;63652;51.526;5.080;2023-06-22T12:39:31;20.67;;;13.23;;
75073;SDS011;63652;51.526;5.080;2023-06-22T12:41:57;23.15;;;13.73;;
75073;SDS011;63652;51.526;5.080;2023-06-22T12:44:22;21.05;;;13.10;;
75073;SDS011;63652;51.526;5.080;2023-06-22T12:46:48;24.92;;;15.45;;
75073;SDS011;63652;51.526;5.080;2023-06-22T12:49:13;20.90;;;14.25;;
75073;SDS011;63652;51.526;5.080;2023-06-22T12:51:42;24.92;;;15.00;;
75073;SDS011;63652;51.526;5.080;2023-06-22T12:54:08;24.88;;;14.00;;
75073;SDS011;63652;51.526;5.080;2023-06-22T12:56:33;20.60;;;14.48;;
75073;SDS011;63652;51.526;5.080;2023-06-22T12:58:59;25.45;;;14.82;;
75073;SDS011;63652;51.526;5.080;2023-06-22T13:01:27;20.67;;;14.73;;
75073;SDS011;63652;51.526;5.080;2023-06-22T13:03:53;20.50;;;14.52;;
75073;SDS011;63652;51.526;5.080;2023-06-22T13:06:18;22.88;;;14.45;;
75073;SDS011;63652;51.526;5.080;2023-06-22T13:08:44;20.92;;;14.75;;
75073;SDS011;63652;51.526;5.080;2023-06-22T13:11:10;23.02;;;15.80;;
75073;SDS011;63652;51.526;5.080;2023-06-22T13:13:35;22.27;;;14.63;;
75073;SDS011;63652;51.526;5.080;2023-06-22T13:16:00;22.20;;;14.50;;
75073;SDS011;63652;51.526;5.080;2023-06-22T13:18:26;23.42;;;15.55;;
75073;SDS011;63652;51.526;5.080;2023-06-22T13:20:51;21.48;;;15.70;;
75073;SDS011;63652;51.526;5.080;2023-06-22T13:23:19;23.67;;;13.85;;
75073;SDS011;63652;51.526;5.080;2023-06-22T13:25:45;39.97;;;17.95;;
75073;SDS011;63652;51.526;5.080;2023-06-22T13:28:10;27.23;;;16.63;;
75073;SDS011;63652;51.526;5.080;2023-06-22T13:30:38;28.70;;;18.10;;
75073;SDS011;63652;51.526;5.080;2023-06-22T13:33:04;27.40;;;17.30;;
75073;SDS011;63652;51.526;5.080;2023-06-22T13:35:29;27.52;;;17.35;;
75073;SDS011;63652;51.526;5.080;2023-06-22T13:37:55;26.88;;;17.40;;
75073;SDS011;63652;51.526;5.080;2023-06-22T13:40:20;27.35;;;17.67;;
75073;SDS011;63652;51.526;5.080;2023-06-22T13:42:46;26.55;;;16.83;;
75073;SDS011;63652;51.526;5.080;2023-06-22T13:45:11;25.88;;;18.27;;
75073;SDS011;63652;51.526;5.080;2023-06-22T13:47:36;31.27;;;18.40;;
75073;SDS011;63652;51.526;5.080;2023-06-22T13:50:02;25.15;;;18.00;;
75073;SDS011;63652;51.526;5.080;2023-06-22T13:52:28;31.17;;;19.25;;
75073;SDS011;63652;51.526;5.080;2023-06-22T13:54:53;28.42;;;17.42;;
75073;SDS011;63652;51.526;5.080;2023-06-22T13:57:19;26.88;;;18.25;;
75073;SDS011;63652;51.526;5.080;2023-06-22T13:59:45;25.42;;;18.02;;
75073;SDS011;63652;51.526;5.080;2023-06-22T14:02:10;30.10;;;17.65;;
75073;SDS011;63652;51.526;5.080;2023-06-22T14:04:35;25.50;;;16.30;;
75073;SDS011;63652;51.526;5.080;2023-06-22T14:07:01;25.05;;;16.38;;
75073;SDS011;63652;51.526;5.080;2023-06-22T14:09:26;25.50;;;15.65;;
75073;SDS011;63652;51.526;5.080;2023-06-22T14:11:53;20.45;;;14.95;;
75073;SDS011;63652;51.526;5.080;2023-06-22T14:14:19;22.42;;;14.65;;
75073;SDS011;63652;51.526;5.080;2023-06-22T14:16:45;22.98;;;15.63;;
75073;SDS011;63652;51.526;5.080;2023-06-22T14:19:10;23.20;;;15.48;;
75073;SDS011;63652;51.526;5.080;2023-06-22T14:21:35;25.40;;;14.65;;
75073;SDS011;63652;51.526;5.080;2023-06-22T14:24:01;22.95;;;15.18;;
75073;SDS011;63652;51.526;5.080;2023-06-22T14:26:26;21.60;;;14.88;;
75073;SDS011;63652;51.526;5.080;2023-06-22T14:28:52;19.45;;;13.05;;
75073;SDS011;63652;51.526;5.080;2023-06-22T14:31:18;28.65;;;15.43;;
75073;SDS011;63652;51.526;5.080;2023-06-22T14:33:45;22.95;;;14.65;;
75073;SDS011;63652;51.526;5.080;2023-06-22T14:36:12;24.30;;;17.35;;
75073;SDS011;63652;51.526;5.080;2023-06-22T14:38:37;26.17;;;16.38;;
75073;SDS011;63652;51.526;5.080;2023-06-22T14:41:03;27.52;;;16.95;;